sensor_id;sensor_type;location;lat;lon;timestamp;P1;durP1;ratioP1;P2;durP2;ratioP2
65130;SDS011;51709;54.912;8.316;2023-07-09T00:00:12;4.25;;;3.30;;
65130;SDS011;51709;54.912;8.316;2023-07-09T00:05:37;6.38;;;3.38;;
65130;SDS011;51709;54.912;8.316;2023-07-09T00:10:58;6.03;;;3.03;;
65130;SDS011;51709;54.912;8.316;2023-07-09T00:16:19;3.63;;;2.78;;
65130;SDS011;51709;54.912;8.316;2023-07-09T00:21:44;3.80;;;3.45;;
65130;SDS011;51709;54.912;8.316;2023-07-09T00:27:08;7.38;;;2.95;;
65130;SDS011;51709;54.912;8.316;2023-07-09T00:32:29;5.45;;;3.00;;
65130;SDS011;51709;54.912;8.316;2023-07-09T00:37:50;4.63;;;3.13;;
65130;SDS011;51709;54.912;8.316;2023-07-09T00:43:13;5.97;;;2.40;;
65130;SDS011;51709;54.912;8.316;2023-07-09T00:53:57;8.30;;;3.63;;
65130;SDS011;51709;54.912;8.316;2023-07-09T00:59:20;3.65;;;2.85;;
65130;SDS011;51709;54.912;8.316;2023-07-09T01:10:05;9.00;;;3.05;;
65130;SDS011;51709;54.912;8.316;2023-07-09T01:15:26;6.72;;;3.30;;
65130;SDS011;51709;54.912;8.316;2023-07-09T01:20:47;4.13;;;3.53;;
65130;SDS011;51709;54.912;8.316;2023-07-09T01:26:08;7.80;;;3.42;;
65130;SDS011;51709;54.912;8.316;2023-07-09T01:31:31;6.05;;;3.58;;
65130;SDS011;51709;54.912;8.316;2023-07-09T01:36:52;4.05;;;3.20;;
65130;SDS011;51709;54.912;8.316;2023-07-09T01:42:14;7.47;;;3.10;;
65130;SDS011;51709;54.912;8.316;2023-07-09T01:47:38;3.97;;;3.30;;
65130;SDS011;51709;54.912;8.316;2023-07-09T01:52:59;4.95;;;3.53;;
65130;SDS011;51709;54.912;8.316;2023-07-09T01:58:21;8.20;;;3.85;;
65130;SDS011;51709;54.912;8.316;2023-07-09T02:03:45;3.90;;;3.53;;
65130;SDS011;51709;54.912;8.316;2023-07-09T02:09:05;4.75;;;3.80;;
65130;SDS011;51709;54.912;8.316;2023-07-09T02:14:26;5.82;;;3.50;;
65130;SDS011;51709;54.912;8.316;2023-07-09T02:19:47;7.13;;;4.00;;
65130;SDS011;51709;54.912;8.316;2023-07-09T02:25:08;4.68;;;3.47;;
65130;SDS011;51709;54.912;8.316;2023-07-09T02:30:29;14.48;;;4.50;;
65130;SDS011;51709;54.912;8.316;2023-07-09T02:35:50;4.15;;;3.78;;
65130;SDS011;51709;54.912;8.316;2023-07-09T02:41:11;4.90;;;4.20;;
65130;SDS011;51709;54.912;8.316;2023-07-09T02:46:32;6.68;;;4.43;;
65130;SDS011;51709;54.912;8.316;2023-07-09T02:51:53;7.65;;;4.50;;
65130;SDS011;51709;54.912;8.316;2023-07-09T02:57:13;5.28;;;4.18;;
65130;SDS011;51709;54.912;8.316;2023-07-09T03:02:34;9.68;;;5.32;;
65130;SDS011;51709;54.912;8.316;2023-07-09T03:07:55;7.32;;;4.60;;
65130;SDS011;51709;54.912;8.316;2023-07-09T03:13:16;5.68;;;4.00;;
65130;SDS011;51709;54.912;8.316;2023-07-09T03:18:37;5.78;;;3.97;;
65130;SDS011;51709;54.912;8.316;2023-07-09T03:23:57;6.88;;;3.97;;
65130;SDS011;51709;54.912;8.316;2023-07-09T03:29:18;8.15;;;4.40;;
65130;SDS011;51709;54.912;8.316;2023-07-09T03:34:40;6.80;;;4.18;;
65130;SDS011;51709;54.912;8.316;2023-07-09T03:40:00;4.93;;;4.47;;
65130;SDS011;51709;54.912;8.316;2023-07-09T03:45:21;9.27;;;4.50;;
65130;SDS011;51709;54.912;8.316;2023-07-09T03:50:43;4.68;;;4.13;;
65130;SDS011;51709;54.912;8.316;2023-07-09T03:56:06;7.28;;;4.13;;
65130;SDS011;51709;54.912;8.316;2023-07-09T04:01:26;5.22;;;4.10;;
65130;SDS011;51709;54.912;8.316;2023-07-09T04:06:47;5.50;;;3.95;;
65130;SDS011;51709;54.912;8.316;2023-07-09T04:12:08;5.05;;;3.65;;
65130;SDS011;51709;54.912;8.316;2023-07-09T04:17:29;7.65;;;4.38;;
65130;SDS011;51709;54.912;8.316;2023-07-09T04:22:50;5.90;;;4.50;;
65130;SDS011;51709;54.912;8.316;2023-07-09T04:28:11;6.18;;;4.10;;
65130;SDS011;51709;54.912;8.316;2023-07-09T04:33:32;6.32;;;3.80;;
65130;SDS011;51709;54.912;8.316;2023-07-09T04:38:55;4.60;;;4.05;;
65130;SDS011;51709;54.912;8.316;2023-07-09T04:44:16;5.20;;;4.70;;
65130;SDS011;51709;54.912;8.316;2023-07-09T04:49:37;13.10;;;3.90;;
65130;SDS011;51709;54.912;8.316;2023-07-09T04:54:57;12.38;;;4.80;;
65130;SDS011;51709;54.912;8.316;2023-07-09T05:00:18;8.38;;;3.90;;
65130;SDS011;51709;54.912;8.316;2023-07-09T05:05:42;6.97;;;4.55;;
65130;SDS011;51709;54.912;8.316;2023-07-09T05:11:03;4.43;;;4.03;;
65130;SDS011;51709;54.912;8.316;2023-07-09T05:16:24;4.38;;;4.03;;
65130;SDS011;51709;54.912;8.316;2023-07-09T05:21:45;8.93;;;4.05;;
65130;SDS011;51709;54.912;8.316;2023-07-09T05:27:05;4.20;;;3.80;;
65130;SDS011;51709;54.912;8.316;2023-07-09T05:32:26;4.57;;;3.40;;
65130;SDS011;51709;54.912;8.316;2023-07-09T05:37:49;7.70;;;3.72;;
65130;SDS011;51709;54.912;8.316;2023-07-09T05:43:10;4.78;;;3.58;;
65130;SDS011;51709;54.912;8.316;2023-07-09T05:48:31;3.85;;;3.55;;
65130;SDS011;51709;54.912;8.316;2023-07-09T05:53:53;3.97;;;3.63;;
65130;SDS011;51709;54.912;8.316;2023-07-09T05:59:14;6.82;;;3.80;;
65130;SDS011;51709;54.912;8.316;2023-07-09T06:04:34;4.05;;;3.15;;
65130;SDS011;51709;54.912;8.316;2023-07-09T06:09:55;3.13;;;2.80;;
65130;SDS011;51709;54.912;8.316;2023-07-09T06:15:17;5.32;;;3.05;;
65130;SDS011;51709;54.912;8.316;2023-07-09T06:20:37;5.50;;;3.85;;
65130;SDS011;51709;54.912;8.316;2023-07-09T06:25:58;5.72;;;2.88;;
65130;SDS011;51709;54.912;8.316;2023-07-09T06:31:19;8.48;;;3.75;;
65130;SDS011;51709;54.912;8.316;2023-07-09T06:36:41;6.82;;;3.08;;
65130;SDS011;51709;54.912;8.316;2023-07-09T06:42:04;3.97;;;3.55;;
65130;SDS011;51709;54.912;8.316;2023-07-09T06:47:42;6.20;;;3.40;;
65130;SDS011;51709;54.912;8.316;2023-07-09T06:53:02;3.80;;;3.42;;
65130;SDS011;51709;54.912;8.316;2023-07-09T06:58:23;3.20;;;2.90;;
65130;SDS011;51709;54.912;8.316;2023-07-09T07:03:46;5.80;;;3.20;;
65130;SDS011;51709;54.912;8.316;2023-07-09T07:09:06;3.80;;;3.50;;
65130;SDS011;51709;54.912;8.316;2023-07-09T07:14:27;3.28;;;2.90;;
65130;SDS011;51709;54.912;8.316;2023-07-09T07:19:49;3.25;;;2.92;;
65130;SDS011;51709;54.912;8.316;2023-07-09T07:25:10;4.18;;;3.20;;
65130;SDS011;51709;54.912;8.316;2023-07-09T07:30:31;3.45;;;3.22;;
65130;SDS011;51709;54.912;8.316;2023-07-09T07:35:52;6.82;;;3.08;;
65130;SDS011;51709;54.912;8.316;2023-07-09T07:41:32;3.75;;;3.33;;
65130;SDS011;51709;54.912;8.316;2023-07-09T07:46:53;6.28;;;3.08;;
65130;SDS011;51709;54.912;8.316;2023-07-09T07:52:14;5.80;;;3.55;;
65130;SDS011;51709;54.912;8.316;2023-07-09T07:57:34;4.03;;;3.10;;
65130;SDS011;51709;54.912;8.316;2023-07-09T08:02:55;4.07;;;3.63;;
65130;SDS011;51709;54.912;8.316;2023-07-09T08:08:16;3.55;;;3.25;;
65130;SDS011;51709;54.912;8.316;2023-07-09T08:13:37;3.72;;;3.30;;
65130;SDS011;51709;54.912;8.316;2023-07-09T08:18:58;3.58;;;3.28;;
65130;SDS011;51709;54.912;8.316;2023-07-09T08:24:19;7.25;;;3.30;;
65130;SDS011;51709;54.912;8.316;2023-07-09T08:29:41;4.60;;;3.22;;
65130;SDS011;51709;54.912;8.316;2023-07-09T08:35:02;4.53;;;3.30;;
65130;SDS011;51709;54.912;8.316;2023-07-09T08:51:21;5.95;;;3.50;;
65130;SDS011;51709;54.912;8.316;2023-07-09T08:57:03;5.32;;;4.40;;
65130;SDS011;51709;54.912;8.316;2023-07-09T09:02:36;6.63;;;4.03;;
65130;SDS011;51709;54.912;8.316;2023-07-09T09:08:20;4.63;;;4.20;;
65130;SDS011;51709;54.912;8.316;2023-07-09T09:14:12;6.57;;;3.70;;
65130;SDS011;51709;54.912;8.316;2023-07-09T09:19:50;5.80;;;4.10;;
65130;SDS011;51709;54.912;8.316;2023-07-09T09:25:18;7.45;;;4.28;;
65130;SDS011;51709;54.912;8.316;2023-07-09T09:30:44;6.93;;;4.47;;
65130;SDS011;51709;54.912;8.316;2023-07-09T09:36:05;6.45;;;4.38;;
65130;SDS011;51709;54.912;8.316;2023-07-09T09:41:30;5.82;;;5.32;;
65130;SDS011;51709;54.912;8.316;2023-07-09T09:46:52;7.28;;;4.43;;
65130;SDS011;51709;54.912;8.316;2023-07-09T09:52:13;5.38;;;4.05;;
65130;SDS011;51709;54.912;8.316;2023-07-09T09:57:35;5.03;;;4.50;;
65130;SDS011;51709;54.912;8.316;2023-07-09T10:03:00;8.45;;;4.93;;
65130;SDS011;51709;54.912;8.316;2023-07-09T10:14:33;5.28;;;4.32;;
65130;SDS011;51709;54.912;8.316;2023-07-09T10:25:31;5.80;;;5.30;;
65130;SDS011;51709;54.912;8.316;2023-07-09T10:42:24;5.88;;;5.35;;
65130;SDS011;51709;54.912;8.316;2023-07-09T10:47:49;5.43;;;4.90;;
65130;SDS011;51709;54.912;8.316;2023-07-09T10:53:37;6.82;;;5.30;;
65130;SDS011;51709;54.912;8.316;2023-07-09T10:59:19;6.15;;;5.75;;
65130;SDS011;51709;54.912;8.316;2023-07-09T11:04:47;6.57;;;5.97;;
65130;SDS011;51709;54.912;8.316;2023-07-09T11:15:44;6.40;;;5.95;;
65130;SDS011;51709;54.912;8.316;2023-07-09T11:21:16;6.18;;;5.78;;
65130;SDS011;51709;54.912;8.316;2023-07-09T11:26:37;6.88;;;6.28;;
65130;SDS011;51709;54.912;8.316;2023-07-09T11:32:08;6.93;;;6.53;;
65130;SDS011;51709;54.912;8.316;2023-07-09T11:37:31;9.73;;;6.43;;
65130;SDS011;51709;54.912;8.316;2023-07-09T11:48:26;7.47;;;6.82;;
65130;SDS011;51709;54.912;8.316;2023-07-09T11:53:51;7.50;;;7.03;;
65130;SDS011;51709;54.912;8.316;2023-07-09T11:59:14;7.88;;;7.30;;
65130;SDS011;51709;54.912;8.316;2023-07-09T12:04:34;8.23;;;7.57;;
65130;SDS011;51709;54.912;8.316;2023-07-09T12:09:55;8.02;;;7.32;;
65130;SDS011;51709;54.912;8.316;2023-07-09T12:15:22;8.80;;;8.07;;
65130;SDS011;51709;54.912;8.316;2023-07-09T12:20:49;8.18;;;7.60;;
65130;SDS011;51709;54.912;8.316;2023-07-09T12:26:16;8.48;;;7.93;;
65130;SDS011;51709;54.912;8.316;2023-07-09T12:31:39;15.77;;;8.75;;
65130;SDS011;51709;54.912;8.316;2023-07-09T12:37:01;8.88;;;8.27;;
65130;SDS011;51709;54.912;8.316;2023-07-09T12:42:28;9.18;;;8.52;;
65130;SDS011;51709;54.912;8.316;2023-07-09T12:47:51;9.35;;;8.65;;
65130;SDS011;51709;54.912;8.316;2023-07-09T12:53:13;10.20;;;9.30;;
65130;SDS011;51709;54.912;8.316;2023-07-09T12:58:36;9.48;;;8.07;;
65130;SDS011;51709;54.912;8.316;2023-07-09T13:03:57;8.50;;;8.00;;
65130;SDS011;51709;54.912;8.316;2023-07-09T13:09:21;8.30;;;7.63;;
65130;SDS011;51709;54.912;8.316;2023-07-09T13:14:42;8.20;;;7.60;;
65130;SDS011;51709;54.912;8.316;2023-07-09T13:20:13;7.80;;;7.30;;
65130;SDS011;51709;54.912;8.316;2023-07-09T13:25:33;7.78;;;7.07;;
65130;SDS011;51709;54.912;8.316;2023-07-09T13:31:10;7.10;;;6.50;;
65130;SDS011;51709;54.912;8.316;2023-07-09T13:36:35;9.15;;;5.80;;
65130;SDS011;51709;54.912;8.316;2023-07-09T13:41:55;6.55;;;6.07;;
65130;SDS011;51709;54.912;8.316;2023-07-09T13:47:18;7.25;;;6.60;;
65130;SDS011;51709;54.912;8.316;2023-07-09T13:52:39;10.82;;;6.40;;
65130;SDS011;51709;54.912;8.316;2023-07-09T13:57:59;7.45;;;5.45;;
65130;SDS011;51709;54.912;8.316;2023-07-09T14:03:22;9.82;;;6.18;;
65130;SDS011;51709;54.912;8.316;2023-07-09T14:08:44;5.68;;;5.10;;
65130;SDS011;51709;54.912;8.316;2023-07-09T14:14:10;6.28;;;5.55;;
65130;SDS011;51709;54.912;8.316;2023-07-09T14:19:36;6.32;;;5.88;;
65130;SDS011;51709;54.912;8.316;2023-07-09T14:24:57;5.70;;;5.30;;
65130;SDS011;51709;54.912;8.316;2023-07-09T14:30:20;25.00;;;22.83;;
65130;SDS011;51709;54.912;8.316;2023-07-09T14:35:45;265.60;;;49.83;;
65130;SDS011;51709;54.912;8.316;2023-07-09T14:41:16;93.63;;;29.80;;
65130;SDS011;51709;54.912;8.316;2023-07-09T14:46:41;23.60;;;9.80;;
65130;SDS011;51709;54.912;8.316;2023-07-09T14:52:01;22.50;;;9.30;;
65130;SDS011;51709;54.912;8.316;2023-07-09T14:57:24;13.63;;;9.50;;
65130;SDS011;51709;54.912;8.316;2023-07-09T15:02:48;7.53;;;6.05;;
65130;SDS011;51709;54.912;8.316;2023-07-09T15:08:12;10.48;;;8.77;;
65130;SDS011;51709;54.912;8.316;2023-07-09T15:13:42;8.93;;;8.07;;
65130;SDS011;51709;54.912;8.316;2023-07-09T15:19:11;8.35;;;7.00;;
65130;SDS011;51709;54.912;8.316;2023-07-09T15:24:33;8.25;;;7.57;;
65130;SDS011;51709;54.912;8.316;2023-07-09T15:29:55;14.80;;;11.98;;
65130;SDS011;51709;54.912;8.316;2023-07-09T15:35:16;10.97;;;10.20;;
65130;SDS011;51709;54.912;8.316;2023-07-09T15:40:38;12.18;;;11.38;;
65130;SDS011;51709;54.912;8.316;2023-07-09T15:45:59;14.82;;;14.02;;
65130;SDS011;51709;54.912;8.316;2023-07-09T15:51:21;17.70;;;16.80;;
65130;SDS011;51709;54.912;8.316;2023-07-09T15:56:42;21.08;;;19.98;;
65130;SDS011;51709;54.912;8.316;2023-07-09T16:02:09;22.75;;;21.45;;
65130;SDS011;51709;54.912;8.316;2023-07-09T16:07:35;22.83;;;21.52;;
65130;SDS011;51709;54.912;8.316;2023-07-09T16:12:56;22.45;;;21.05;;
65130;SDS011;51709;54.912;8.316;2023-07-09T16:18:18;20.38;;;19.00;;
65130;SDS011;51709;54.912;8.316;2023-07-09T16:23:39;15.43;;;14.57;;
65130;SDS011;51709;54.912;8.316;2023-07-09T16:29:00;15.85;;;14.55;;
65130;SDS011;51709;54.912;8.316;2023-07-09T16:34:21;8.93;;;8.27;;
65130;SDS011;51709;54.912;8.316;2023-07-09T16:39:43;7.53;;;7.03;;
65130;SDS011;51709;54.912;8.316;2023-07-09T16:45:03;10.85;;;6.93;;
65130;SDS011;51709;54.912;8.316;2023-07-09T16:50:25;6.32;;;5.82;;
65130;SDS011;51709;54.912;8.316;2023-07-09T16:55:46;5.82;;;5.25;;
65130;SDS011;51709;54.912;8.316;2023-07-09T17:01:08;5.47;;;5.05;;
65130;SDS011;51709;54.912;8.316;2023-07-09T17:06:29;8.32;;;4.40;;
65130;SDS011;51709;54.912;8.316;2023-07-09T17:11:59;5.03;;;4.60;;
65130;SDS011;51709;54.912;8.316;2023-07-09T17:17:21;7.00;;;4.45;;
65130;SDS011;51709;54.912;8.316;2023-07-09T17:22:44;5.45;;;4.50;;
65130;SDS011;51709;54.912;8.316;2023-07-09T17:28:14;5.00;;;4.47;;
65130;SDS011;51709;54.912;8.316;2023-07-09T17:33:42;6.72;;;5.70;;
65130;SDS011;51709;54.912;8.316;2023-07-09T17:39:02;5.20;;;4.72;;
65130;SDS011;51709;54.912;8.316;2023-07-09T17:44:23;8.50;;;4.80;;
65130;SDS011;51709;54.912;8.316;2023-07-09T17:49:45;9.68;;;4.15;;
65130;SDS011;51709;54.912;8.316;2023-07-09T17:55:06;6.38;;;4.25;;
65130;SDS011;51709;54.912;8.316;2023-07-09T18:00:27;5.28;;;4.40;;
65130;SDS011;51709;54.912;8.316;2023-07-09T18:05:48;5.20;;;4.25;;
65130;SDS011;51709;54.912;8.316;2023-07-09T18:11:15;11.07;;;4.38;;
65130;SDS011;51709;54.912;8.316;2023-07-09T18:16:43;9.27;;;4.57;;
65130;SDS011;51709;54.912;8.316;2023-07-09T18:22:05;5.72;;;3.70;;
65130;SDS011;51709;54.912;8.316;2023-07-09T18:27:44;12.98;;;5.03;;
65130;SDS011;51709;54.912;8.316;2023-07-09T18:33:09;6.15;;;5.13;;
65130;SDS011;51709;54.912;8.316;2023-07-09T18:38:31;6.65;;;4.20;;
65130;SDS011;51709;54.912;8.316;2023-07-09T18:43:51;7.95;;;4.50;;
65130;SDS011;51709;54.912;8.316;2023-07-09T18:49:12;7.47;;;4.22;;
65130;SDS011;51709;54.912;8.316;2023-07-09T18:54:33;4.53;;;4.13;;
65130;SDS011;51709;54.912;8.316;2023-07-09T18:59:53;8.35;;;4.65;;
65130;SDS011;51709;54.912;8.316;2023-07-09T19:05:21;5.28;;;4.75;;
65130;SDS011;51709;54.912;8.316;2023-07-09T19:10:47;4.97;;;4.47;;
65130;SDS011;51709;54.912;8.316;2023-07-09T19:16:41;4.38;;;3.78;;
65130;SDS011;51709;54.912;8.316;2023-07-09T19:21:55;8.63;;;4.15;;
65130;SDS011;51709;54.912;8.316;2023-07-09T19:27:16;3.85;;;3.55;;
65130;SDS011;51709;54.912;8.316;2023-07-09T19:32:37;5.32;;;4.15;;
65130;SDS011;51709;54.912;8.316;2023-07-09T19:38:00;5.60;;;5.10;;
65130;SDS011;51709;54.912;8.316;2023-07-09T19:43:20;7.75;;;5.70;;
65130;SDS011;51709;54.912;8.316;2023-07-09T19:48:41;10.68;;;6.45;;
65130;SDS011;51709;54.912;8.316;2023-07-09T19:54:08;7.25;;;6.63;;
65130;SDS011;51709;54.912;8.316;2023-07-09T19:59:32;13.52;;;10.00;;
65130;SDS011;51709;54.912;8.316;2023-07-09T20:04:52;16.35;;;13.73;;
65130;SDS011;51709;54.912;8.316;2023-07-09T20:10:13;17.38;;;14.15;;
65130;SDS011;51709;54.912;8.316;2023-07-09T20:15:34;17.48;;;11.90;;
65130;SDS011;51709;54.912;8.316;2023-07-09T20:20:59;14.95;;;11.30;;
65130;SDS011;51709;54.912;8.316;2023-07-09T20:26:23;18.45;;;12.48;;
65130;SDS011;51709;54.912;8.316;2023-07-09T20:31:44;21.33;;;11.32;;
65130;SDS011;51709;54.912;8.316;2023-07-09T20:37:08;18.90;;;8.73;;
65130;SDS011;51709;54.912;8.316;2023-07-09T20:42:30;29.70;;;10.70;;
65130;SDS011;51709;54.912;8.316;2023-07-09T20:47:52;20.77;;;9.82;;
65130;SDS011;51709;54.912;8.316;2023-07-09T20:53:14;28.95;;;10.82;;
65130;SDS011;51709;54.912;8.316;2023-07-09T20:58:36;15.57;;;8.43;;
65130;SDS011;51709;54.912;8.316;2023-07-09T21:03:56;22.20;;;8.48;;
65130;SDS011;51709;54.912;8.316;2023-07-09T21:09:24;20.15;;;8.40;;
65130;SDS011;51709;54.912;8.316;2023-07-09T21:14:49;21.67;;;8.70;;
65130;SDS011;51709;54.912;8.316;2023-07-09T21:20:15;22.75;;;8.40;;
65130;SDS011;51709;54.912;8.316;2023-07-09T21:25:38;17.67;;;8.65;;
65130;SDS011;51709;54.912;8.316;2023-07-09T21:30:58;27.33;;;8.93;;
65130;SDS011;51709;54.912;8.316;2023-07-09T21:36:20;13.90;;;8.65;;
65130;SDS011;51709;54.912;8.316;2023-07-09T21:41:40;20.60;;;8.32;;
65130;SDS011;51709;54.912;8.316;2023-07-09T21:47:02;17.58;;;8.10;;
65130;SDS011;51709;54.912;8.316;2023-07-09T21:52:25;14.68;;;8.15;;
65130;SDS011;51709;54.912;8.316;2023-07-09T21:57:46;14.05;;;6.90;;
65130;SDS011;51709;54.912;8.316;2023-07-09T22:03:08;20.98;;;7.90;;
65130;SDS011;51709;54.912;8.316;2023-07-09T22:08:33;21.05;;;8.57;;
65130;SDS011;51709;54.912;8.316;2023-07-09T22:13:53;16.48;;;7.90;;
65130;SDS011;51709;54.912;8.316;2023-07-09T22:19:17;11.40;;;7.45;;
65130;SDS011;51709;54.912;8.316;2023-07-09T22:24:48;13.70;;;6.70;;
65130;SDS011;51709;54.912;8.316;2023-07-09T22:37:41;13.07;;;6.20;;
65130;SDS011;51709;54.912;8.316;2023-07-09T22:43:02;13.55;;;6.65;;
65130;SDS011;51709;54.912;8.316;2023-07-09T22:48:23;20.25;;;6.45;;
65130;SDS011;51709;54.912;8.316;2023-07-09T22:53:44;7.63;;;5.60;;
65130;SDS011;51709;54.912;8.316;2023-07-09T22:59:05;13.88;;;6.20;;
65130;SDS011;51709;54.912;8.316;2023-07-09T23:04:25;11.80;;;6.22;;
65130;SDS011;51709;54.912;8.316;2023-07-09T23:09:46;9.60;;;5.57;;
65130;SDS011;51709;54.912;8.316;2023-07-09T23:15:16;17.67;;;5.57;;
65130;SDS011;51709;54.912;8.316;2023-07-09T23:20:43;11.07;;;6.88;;
65130;SDS011;51709;54.912;8.316;2023-07-09T23:26:04;11.65;;;6.65;;
65130;SDS011;51709;54.912;8.316;2023-07-09T23:31:29;20.08;;;7.30;;
65130;SDS011;51709;54.912;8.316;2023-07-09T23:36:51;11.38;;;7.05;;
65130;SDS011;51709;54.912;8.316;2023-07-09T23:42:12;10.40;;;7.50;;
65130;SDS011;51709;54.912;8.316;2023-07-09T23:47:33;18.17;;;7.55;;
65130;SDS011;51709;54.912;8.316;2023-07-09T23:52:53;13.63;;;7.45;;
65130;SDS011;51709;54.912;8.316;2023-07-09T23:58:13;15.45;;;7.38;;
